aviador You're here:

GMFM Decoded Metar

MEKNES in MOROCCO
Report Time2018-02-17 23:00:00
UTC Time2018-02-17 23:35:09
Flight Rules vfr VFR
WindCalm
Visibility9999 m
Phenomena:N/A
Clouds:N/A
CeilingNone
Temp08°C (ISA -3)
Dew Point08°C (100% RH)
AAT7.5°C
QNH1023 hPa
Density Alt1,207 ft
Elevation1,801 ft
Report Wrong Elevation
Raw Report
GMFM 172300Z 00000KT CAVOK 08/08 Q1023 NOSIG=

Extra information for GMFM:More info

Metar Taf Metar & Taf Last 4 Metars F.Rules Stats Wind Profile Meteogram Temp Stats Airport Information Weather charts Add Link Nearby VenuesMetar ALERT Operation Metar Decoded Social comments